createdAt,value
2019-04-07T00:01:27.558Z,81.30
2019-04-07T00:03:54.964Z,81.10
2019-04-07T00:06:22.506Z,81.10
2019-04-07T00:08:50.958Z,81.30
2019-04-07T00:11:18.887Z,81.10
2019-04-07T00:13:46.025Z,80.30
2019-04-07T00:16:13.631Z,80.10
2019-04-07T00:18:42.022Z,79.80
2019-04-07T00:21:09.988Z,79.80
2019-04-07T00:23:37.595Z,80.10
2019-04-07T00:26:05.205Z,80.30
2019-04-07T00:28:33.565Z,81.10
2019-04-07T00:31:01.942Z,81.00
2019-04-07T00:33:29.532Z,81.70
2019-04-07T00:35:58.162Z,81.80
2019-04-07T00:38:25.561Z,81.80
2019-04-07T00:40:54.332Z,82.70
2019-04-07T00:43:21.915Z,82.70
2019-04-07T00:45:50.298Z,82.40
2019-04-07T00:48:17.894Z,82.40
2019-04-07T00:50:46.057Z,81.70
2019-04-07T00:53:13.462Z,82.00
2019-04-07T00:55:40.853Z,82.20
2019-04-07T00:58:08.317Z,82.20
2019-04-07T01:00:35.859Z,83.40
2019-04-07T01:03:04.289Z,82.60
2019-04-07T01:05:37.890Z,82.40
2019-04-07T01:07:59.733Z,82.60
2019-04-07T01:10:27.378Z,82.80
2019-04-07T01:12:55.563Z,82.90
2019-04-07T01:15:23.056Z,83.00
2019-04-07T01:17:50.143Z,83.10
2019-04-07T01:20:17.814Z,83.20
2019-04-07T01:22:45.321Z,83.30
2019-04-07T01:25:12.946Z,83.50
2019-04-07T01:27:41.212Z,83.60
2019-04-07T01:30:08.124Z,83.70
2019-04-07T01:32:35.803Z,83.80
2019-04-07T01:35:03.335Z,84.00
2019-04-07T01:37:30.930Z,84.30
2019-04-07T01:39:59.324Z,85.00
2019-04-07T01:42:29.403Z,84.90
2019-04-07T01:45:11.865Z,85.00
2019-04-07T01:47:39.691Z,85.10
2019-04-07T01:50:07.730Z,86.10
2019-04-07T01:52:34.846Z,85.30
2019-04-07T01:55:04.932Z,85.40
2019-04-07T01:57:32.517Z,85.50
2019-04-07T02:00:00.715Z,85.50
2019-04-07T02:02:45.821Z,85.60
2019-04-07T02:05:28.809Z,85.70
2019-04-07T02:07:56.597Z,86.20
2019-04-07T02:10:32.931Z,85.40
2019-04-07T02:13:01.061Z,85.50
2019-04-07T02:15:28.392Z,85.70
2019-04-07T02:17:55.988Z,85.80
2019-04-07T02:20:54.474Z,86.20
2019-04-07T02:23:25.075Z,86.40
2019-04-07T02:25:52.771Z,87.60
2019-04-07T02:28:23.236Z,86.80
2019-04-07T02:31:00.564Z,86.80
2019-04-07T02:33:31.009Z,87.60
2019-04-07T02:36:16.082Z,86.70
2019-04-07T02:38:33.397Z,86.70
2019-04-07T02:41:04.204Z,86.60
2019-04-07T02:43:34.376Z,86.90
2019-04-07T02:46:05.860Z,86.80
2019-04-07T02:48:33.751Z,86.80
2019-04-07T02:51:03.397Z,86.90
2019-04-07T02:53:31.013Z,87.00
2019-04-07T02:56:02.043Z,87.10
2019-04-07T02:58:44.356Z,87.50
2019-04-07T03:01:24.226Z,86.10
2019-04-07T03:03:57.733Z,86.60
2019-04-07T03:06:49.158Z,86.70
2019-04-07T03:09:10.957Z,86.90
2019-04-07T03:11:38.044Z,87.70
2019-04-07T03:14:09.097Z,87.70
2019-04-07T03:16:54.218Z,87.10
2019-04-07T03:19:37.271Z,87.30
2019-04-07T03:22:04.479Z,86.60
2019-04-07T03:24:33.560Z,86.80
2019-04-07T03:27:15.735Z,86.70
2019-04-07T03:29:42.834Z,86.70
2019-04-07T03:32:18.270Z,87.00
2019-04-07T03:34:44.843Z,86.40
2019-04-07T03:37:33.244Z,85.60
2019-04-07T03:40:02.864Z,85.50
2019-04-07T03:42:49.954Z,86.60
2019-04-07T03:45:16.876Z,85.90
2019-04-07T03:47:45.578Z,86.10
2019-04-07T03:50:12.694Z,87.00
2019-04-07T03:52:54.373Z,86.50
2019-04-07T03:55:21.932Z,86.60
2019-04-07T03:58:04.028Z,86.70
2019-04-07T04:00:47.682Z,86.90
2019-04-07T04:03:15.780Z,86.80
2019-04-07T04:05:43.418Z,87.00
2019-04-07T04:08:13.970Z,87.00
2019-04-07T04:10:52.697Z,87.10
2019-04-07T04:13:23.165Z,87.10
2019-04-07T04:15:51.498Z,87.20
2019-04-07T04:18:18.431Z,87.40
2019-04-07T04:20:46.352Z,87.50
2019-04-07T04:23:14.341Z,88.00
2019-04-07T04:25:40.928Z,87.40
2019-04-07T04:28:08.514Z,87.30
2019-04-07T04:30:37.121Z,87.20
2019-04-07T04:33:04.149Z,87.20
2019-04-07T04:35:32.365Z,87.20
2019-04-07T04:37:59.864Z,87.40
2019-04-07T04:40:28.086Z,87.50
2019-04-07T04:42:55.143Z,87.50
2019-04-07T04:45:22.662Z,87.60
2019-04-07T04:47:50.290Z,87.70
2019-04-07T04:50:18.103Z,88.00
2019-04-07T04:52:45.552Z,88.80
2019-04-07T04:55:13.318Z,88.10
2019-04-07T04:57:40.700Z,88.00
2019-04-07T05:00:08.259Z,88.30
2019-04-07T05:02:35.882Z,87.50
2019-04-07T05:05:03.996Z,87.30
2019-04-07T05:07:31.074Z,88.10
2019-04-07T05:09:58.863Z,87.50
2019-04-07T05:12:26.295Z,88.00
2019-04-07T05:14:53.877Z,87.30
2019-04-07T05:17:21.960Z,87.30
2019-04-07T05:19:49.099Z,87.40
2019-04-07T05:22:16.736Z,87.50
2019-04-07T05:24:44.597Z,87.70
2019-04-07T05:27:12.949Z,87.40
2019-04-07T05:29:41.165Z,87.40
2019-04-07T05:32:09.562Z,88.10
2019-04-07T05:34:37.787Z,87.50
2019-04-07T05:37:04.896Z,87.40
2019-04-07T05:39:32.948Z,87.70
2019-04-07T05:42:00.253Z,87.00
2019-04-07T05:44:27.833Z,87.00
2019-04-07T05:46:56.040Z,87.10
2019-04-07T05:49:24.257Z,88.00
2019-04-07T05:51:50.622Z,87.90
2019-04-07T05:54:19.800Z,87.10
2019-04-07T05:56:45.958Z,87.30
2019-04-07T05:59:14.021Z,86.70
2019-04-07T06:01:41.348Z,86.70
2019-04-07T06:04:08.917Z,87.00
2019-04-07T06:06:39.983Z,85.90
2019-04-07T06:09:05.180Z,85.90
2019-04-07T06:11:35.277Z,85.10
2019-04-07T06:13:59.712Z,85.30
2019-04-07T06:16:28.738Z,85.80
2019-04-07T06:18:55.691Z,85.70
2019-04-07T06:21:23.460Z,86.00
2019-04-07T06:23:50.897Z,85.70
2019-04-07T06:26:18.756Z,85.10
2019-04-07T06:28:51.026Z,85.30
2019-04-07T06:31:14.484Z,85.50
2019-04-07T06:33:42.995Z,85.90
2019-04-07T06:36:10.413Z,85.90
2019-04-07T06:38:43.234Z,86.00
2019-04-07T06:41:07.353Z,86.10
2019-04-07T06:43:37.143Z,86.10
2019-04-07T06:46:03.814Z,87.10
2019-04-07T06:48:30.728Z,86.30
2019-04-07T06:51:00.401Z,86.60
2019-04-07T06:53:46.789Z,86.70
2019-04-07T06:56:21.838Z,86.80
2019-04-07T06:58:53.191Z,87.10
2019-04-07T07:01:33.781Z,87.60
2019-04-07T07:04:01.811Z,87.00
2019-04-07T07:06:48.416Z,87.50
2019-04-07T07:09:19.125Z,87.80
2019-04-07T07:11:49.633Z,87.60
2019-04-07T07:14:33.640Z,87.70
2019-04-07T07:17:07.939Z,87.40
2019-04-07T07:19:39.162Z,87.30
2019-04-07T07:22:14.800Z,87.20
2019-04-07T07:24:39.761Z,87.30
2019-04-07T07:27:10.286Z,86.90
2019-04-07T07:29:36.219Z,86.80
2019-04-07T07:32:04.703Z,86.70
2019-04-07T07:34:31.637Z,86.70
2019-04-07T07:36:59.838Z,86.60
2019-04-07T07:39:27.139Z,86.80
2019-04-07T07:41:54.111Z,86.00
2019-04-07T07:44:22.459Z,86.10
2019-04-07T07:46:51.518Z,86.10
2019-04-07T07:49:17.696Z,86.10
2019-04-07T07:51:48.401Z,86.30
2019-04-07T07:54:14.800Z,86.80
2019-04-07T07:56:43.261Z,86.80
2019-04-07T07:59:08.908Z,86.20
2019-04-07T08:01:36.501Z,86.80
2019-04-07T08:04:04.149Z,86.70
2019-04-07T08:06:31.773Z,85.80
2019-04-07T08:09:09.807Z,85.70
2019-04-07T08:11:30.781Z,85.30
2019-04-07T08:13:55.449Z,85.30
2019-04-07T08:16:22.951Z,85.30
2019-04-07T08:18:52.100Z,85.30
2019-04-07T08:21:20.146Z,84.70
2019-04-07T08:23:48.086Z,84.80
2019-04-07T08:26:15.827Z,84.50
2019-04-07T08:28:43.906Z,84.20
2019-04-07T08:31:11.089Z,84.20
2019-04-07T08:33:38.767Z,83.30
2019-04-07T08:36:09.676Z,83.10
2019-04-07T08:38:34.364Z,82.90
2019-04-07T08:41:01.964Z,83.30
2019-04-07T08:43:29.223Z,82.50
2019-04-07T08:45:56.818Z,82.50
2019-04-07T08:48:25.627Z,82.30
2019-04-07T08:50:52.908Z,82.00
2019-04-07T08:53:20.497Z,81.70
2019-04-07T08:55:49.892Z,81.10
2019-04-07T08:58:25.009Z,80.90
2019-04-07T09:00:48.802Z,80.70
2019-04-07T09:03:15.739Z,80.70
2019-04-07T09:05:41.234Z,80.60
2019-04-07T09:08:08.831Z,80.70
2019-04-07T09:10:39.374Z,81.20
2019-04-07T09:13:09.270Z,80.70
2019-04-07T09:15:54.435Z,79.60
2019-04-07T09:18:24.454Z,79.50
2019-04-07T09:21:10.160Z,79.30
2019-04-07T09:23:56.801Z,79.50
2019-04-07T09:26:23.850Z,79.20
2019-04-07T09:28:55.763Z,78.90
2019-04-07T09:31:30.409Z,78.90
2019-04-07T09:34:00.507Z,78.60
2019-04-07T09:36:28.814Z,78.30
2019-04-07T09:39:01.842Z,77.70
2019-04-07T09:41:28.395Z,77.30
2019-04-07T09:44:01.105Z,75.10
2019-04-07T09:46:48.389Z,75.10
2019-04-07T09:49:10.896Z,74.70
2019-04-07T09:51:44.931Z,74.30
2019-04-07T09:54:29.741Z,74.20
2019-04-07T09:56:57.333Z,73.70
2019-04-07T09:59:24.923Z,73.20
2019-04-07T10:01:52.679Z,73.20
2019-04-07T10:04:25.927Z,72.10
2019-04-07T10:07:02.664Z,71.40
2019-04-07T10:09:32.462Z,70.70
2019-04-07T10:12:15.178Z,70.00
2019-04-07T10:15:00.977Z,69.20
2019-04-07T10:17:28.969Z,68.60
2019-04-07T10:20:05.379Z,68.30
2019-04-07T10:22:39.562Z,68.10
2019-04-07T10:25:26.857Z,68.00
2019-04-07T10:27:53.316Z,66.90
2019-04-07T10:30:21.071Z,66.80
2019-04-07T10:32:48.877Z,66.90
2019-04-07T10:35:19.011Z,66.80
2019-04-07T10:37:51.355Z,66.20
2019-04-07T10:40:21.828Z,65.60
2019-04-07T10:42:50.198Z,65.50
2019-04-07T10:45:29.656Z,65.20
2019-04-07T10:48:00.250Z,63.50
2019-04-07T10:50:32.572Z,63.40
2019-04-07T10:53:05.507Z,63.20
2019-04-07T10:55:43.056Z,63.60
2019-04-07T10:58:10.681Z,62.60
2019-04-07T11:00:47.267Z,62.30
2019-04-07T11:03:30.162Z,62.20
2019-04-07T11:06:07.312Z,61.60
2019-04-07T11:08:46.619Z,61.00
2019-04-07T11:11:14.606Z,60.60
2019-04-07T11:13:53.758Z,60.20
2019-04-07T11:16:24.794Z,59.80
2019-04-07T11:19:01.956Z,59.30
2019-04-07T11:21:31.605Z,58.90
2019-04-07T11:24:05.423Z,58.50
2019-04-07T11:26:32.512Z,58.00
2019-04-07T11:29:01.592Z,57.50
2019-04-07T11:31:40.611Z,57.20
2019-04-07T11:34:08.797Z,57.00
2019-04-07T11:36:38.580Z,56.90
2019-04-07T11:39:06.984Z,56.80
2019-04-07T11:41:37.309Z,56.70
2019-04-07T11:44:20.178Z,56.70
2019-04-07T11:46:56.265Z,56.60
2019-04-07T11:49:26.651Z,56.40
2019-04-07T11:51:56.408Z,56.20
2019-04-07T11:54:24.122Z,56.40
2019-04-07T11:57:10.888Z,55.80
2019-04-07T11:59:56.223Z,55.70
2019-04-07T12:02:33.086Z,55.70
2019-04-07T12:05:12.020Z,55.80
2019-04-07T12:07:42.338Z,55.90
2019-04-07T12:10:16.139Z,55.90
2019-04-07T12:12:46.252Z,55.70
2019-04-07T12:15:22.070Z,55.60
2019-04-07T12:17:46.878Z,55.30
2019-04-07T12:20:29.916Z,55.00
2019-04-07T12:22:54.912Z,55.10
2019-04-07T12:25:33.475Z,54.50
2019-04-07T12:28:01.412Z,54.40
2019-04-07T12:30:29.006Z,54.40
2019-04-07T12:32:57.343Z,54.50
2019-04-07T12:35:32.429Z,54.60
2019-04-07T12:38:01.536Z,54.20
2019-04-07T12:40:47.434Z,54.30
2019-04-07T12:43:15.786Z,53.50
2019-04-07T12:45:43.845Z,53.40
2019-04-07T12:48:12.153Z,53.30
2019-04-07T12:50:49.014Z,53.20
2019-04-07T12:53:13.531Z,53.00
2019-04-07T12:55:53.394Z,53.20
2019-04-07T12:58:32.401Z,53.40
2019-04-07T13:01:17.667Z,52.90
2019-04-07T13:03:39.440Z,52.70
2019-04-07T13:06:24.932Z,52.80
2019-04-07T13:08:58.267Z,52.40
2019-04-07T13:11:36.187Z,52.30
2019-04-07T13:14:18.292Z,52.20
2019-04-07T13:17:03.111Z,51.40
2019-04-07T13:19:48.976Z,51.50
2019-04-07T13:22:13.430Z,51.40
2019-04-07T13:24:48.487Z,51.30
2019-04-07T13:27:16.842Z,51.40
2019-04-07T13:29:45.450Z,51.60
2019-04-07T13:32:24.005Z,52.10
2019-04-07T13:34:54.896Z,52.50
2019-04-07T13:37:26.506Z,52.90
2019-04-07T13:39:54.293Z,52.90
2019-04-07T13:42:23.088Z,53.10
2019-04-07T13:45:03.512Z,53.20
2019-04-07T13:47:29.110Z,53.30
2019-04-07T13:50:02.706Z,53.30
2019-04-07T13:52:30.115Z,53.30
2019-04-07T13:55:17.146Z,53.50
2019-04-07T13:57:46.780Z,53.20
2019-04-07T14:00:16.217Z,53.40
2019-04-07T14:02:48.921Z,53.30
2019-04-07T14:05:18.790Z,53.40
2019-04-07T14:07:55.240Z,53.70
2019-04-07T14:10:22.739Z,53.70
2019-04-07T14:13:08.128Z,53.90
2019-04-07T14:15:53.583Z,53.90
2019-04-07T14:18:21.247Z,53.70
2019-04-07T14:20:55.135Z,53.60
2019-04-07T14:23:38.280Z,53.60
2019-04-07T14:26:11.363Z,53.50
2019-04-07T14:28:44.200Z,53.40
2019-04-07T14:31:20.756Z,53.30
2019-04-07T14:34:06.306Z,53.30
2019-04-07T14:36:46.706Z,53.80
2019-04-07T14:39:17.908Z,54.30
2019-04-07T14:41:47.649Z,53.70
2019-04-07T14:44:15.373Z,53.50
2019-04-07T14:46:57.743Z,53.10
2019-04-07T14:49:31.744Z,52.90
2019-04-07T14:52:16.933Z,52.30
2019-04-07T14:54:45.128Z,53.20
2019-04-07T14:57:12.834Z,53.00
2019-04-07T14:59:41.653Z,53.20
2019-04-07T15:02:08.758Z,53.20
2019-04-07T15:04:37.843Z,52.90
2019-04-07T15:07:23.692Z,52.90
2019-04-07T15:09:51.395Z,54.60
2019-04-07T15:12:23.723Z,54.60
2019-04-07T15:14:47.382Z,56.00
2019-04-07T15:17:14.977Z,56.00
2019-04-07T15:19:42.570Z,56.20
2019-04-07T15:22:10.251Z,56.30
2019-04-07T15:24:39.544Z,55.90
2019-04-07T15:27:07.908Z,56.00
2019-04-07T15:29:42.139Z,56.00
2019-04-07T15:32:06.003Z,56.20
2019-04-07T15:34:34.312Z,56.80
2019-04-07T15:37:02.291Z,56.60
2019-04-07T15:39:30.951Z,56.50
2019-04-07T15:41:57.737Z,56.80
2019-04-07T15:44:25.899Z,57.10
2019-04-07T15:46:53.808Z,58.00
2019-04-07T15:49:23.524Z,57.50
2019-04-07T15:51:49.890Z,57.40
2019-04-07T15:54:20.155Z,57.30
2019-04-07T15:56:48.062Z,58.10
2019-04-07T15:59:12.661Z,57.50
2019-04-07T16:01:41.846Z,58.10
2019-04-07T16:04:08.625Z,58.10
2019-04-07T16:06:37.093Z,58.10
2019-04-07T16:09:09.489Z,57.90
2019-04-07T16:11:32.673Z,57.70
2019-04-07T16:14:00.240Z,58.50
2019-04-07T16:16:29.468Z,57.80
2019-04-07T16:18:55.413Z,57.70
2019-04-07T16:21:23.051Z,57.90
2019-04-07T16:23:53.358Z,58.00
2019-04-07T16:26:19.705Z,59.10
2019-04-07T16:28:46.886Z,59.10
2019-04-07T16:31:14.220Z,59.70
2019-04-07T16:33:41.809Z,60.20
2019-04-07T16:36:09.475Z,60.90
2019-04-07T16:38:38.562Z,62.50
2019-04-07T16:41:06.438Z,61.80
2019-04-07T16:43:34.615Z,62.50
2019-04-07T16:46:00.668Z,63.50
2019-04-07T16:48:28.373Z,64.50
2019-04-07T16:50:55.911Z,65.40
2019-04-07T16:53:23.577Z,66.00
2019-04-07T16:55:54.055Z,67.30
2019-04-07T16:58:19.335Z,66.70
2019-04-07T17:00:47.519Z,68.40
2019-04-07T17:03:15.411Z,67.90
2019-04-07T17:05:43.135Z,68.90
2019-04-07T17:08:10.576Z,68.90
2019-04-07T17:10:39.044Z,68.50
2019-04-07T17:13:16.979Z,69.00
2019-04-07T17:15:38.204Z,69.60
2019-04-07T17:18:01.013Z,70.10
2019-04-07T17:20:33.383Z,70.60
2019-04-07T17:22:56.884Z,70.30
2019-04-07T17:25:25.436Z,70.70
2019-04-07T17:27:51.945Z,71.10
2019-04-07T17:30:19.857Z,71.50
2019-04-07T17:32:49.773Z,71.80
2019-04-07T17:35:17.456Z,71.80
2019-04-07T17:37:43.884Z,71.90
2019-04-07T17:40:14.746Z,72.10
2019-04-07T17:42:41.992Z,72.40
2019-04-07T17:45:24.738Z,72.50
2019-04-07T17:48:10.416Z,72.50
2019-04-07T17:50:42.156Z,73.00
2019-04-07T17:53:21.269Z,72.20
2019-04-07T17:55:51.287Z,72.30
2019-04-07T17:58:32.047Z,72.90
2019-04-07T18:00:59.679Z,72.40
2019-04-07T18:03:43.983Z,72.60
2019-04-07T18:06:08.868Z,72.90
2019-04-07T18:08:36.458Z,73.40
2019-04-07T18:11:09.876Z,73.70
2019-04-07T18:13:44.069Z,74.50
2019-04-07T18:19:02.726Z,74.30
2019-04-07T18:21:30.285Z,74.60
2019-04-07T18:24:00.196Z,75.60
2019-04-07T18:26:28.516Z,75.30
2019-04-07T18:28:58.528Z,75.60
2019-04-07T18:31:35.232Z,76.10
2019-04-07T18:34:17.480Z,76.60
2019-04-07T18:37:06.968Z,77.80
2019-04-07T18:39:33.096Z,77.50
2019-04-07T18:42:13.658Z,77.90
2019-04-07T18:44:41.308Z,78.80
2019-04-07T18:47:23.957Z,78.60
2019-04-07T18:49:53.862Z,78.70
2019-04-07T18:52:26.379Z,78.10
2019-04-07T18:55:10.186Z,78.30
2019-04-07T18:57:41.662Z,78.50
2019-04-07T19:00:17.025Z,78.70
2019-04-07T19:02:46.403Z,78.80
2019-04-07T19:05:33.389Z,78.10
2019-04-07T19:07:59.450Z,78.90
2019-04-07T19:10:29.726Z,79.00
2019-04-07T19:13:17.572Z,78.90
2019-04-07T19:15:58.112Z,79.10
2019-04-07T19:18:43.915Z,79.70
2019-04-07T19:21:29.443Z,79.30
2019-04-07T19:23:59.096Z,79.60
2019-04-07T19:26:25.225Z,79.90
2019-04-07T19:29:10.875Z,80.30
2019-04-07T19:31:39.433Z,80.60
2019-04-07T19:34:15.020Z,80.90
2019-04-07T19:36:54.462Z,81.10
2019-04-07T19:39:28.332Z,81.40
2019-04-07T19:42:00.974Z,81.40
2019-04-07T19:44:41.253Z,81.60
2019-04-07T19:47:05.425Z,81.60
2019-04-07T19:49:52.946Z,81.70
2019-04-07T19:52:38.369Z,81.90
2019-04-07T19:55:25.990Z,82.20
2019-04-07T19:57:50.574Z,81.40
2019-04-07T20:00:26.312Z,81.30
2019-04-07T20:02:57.735Z,82.00
2019-04-07T20:05:25.466Z,81.30
2019-04-07T20:08:02.946Z,81.00
2019-04-07T20:10:41.177Z,80.90
2019-04-07T20:13:26.778Z,80.60
2019-04-07T20:15:56.188Z,80.20
2019-04-07T20:18:26.504Z,79.30
2019-04-07T20:20:57.204Z,79.30
2019-04-07T20:23:27.730Z,79.40
2019-04-07T20:25:57.920Z,79.40
2019-04-07T20:28:30.244Z,79.50
2019-04-07T20:31:03.969Z,79.40
2019-04-07T20:33:33.085Z,79.60
2019-04-07T20:36:01.091Z,80.40
2019-04-07T20:38:40.143Z,80.20
2019-04-07T20:41:16.982Z,79.60
2019-04-07T20:43:53.823Z,79.20
2019-04-07T20:46:38.470Z,78.80
2019-04-07T20:49:15.822Z,78.10
2019-04-07T20:51:43.319Z,77.70
2019-04-07T20:54:09.972Z,77.00
2019-04-07T20:56:55.719Z,77.30
2019-04-07T20:59:29.066Z,77.60
2019-04-07T21:02:04.176Z,78.20
2019-04-07T21:04:37.502Z,78.20
2019-04-07T21:07:23.425Z,78.60
2019-04-07T21:09:50.055Z,79.10
2019-04-07T21:12:30.848Z,78.90
2019-04-07T21:15:16.854Z,79.10
2019-04-07T21:17:34.188Z,79.70
2019-04-07T21:20:02.020Z,79.60
2019-04-07T21:22:33.479Z,80.30
2019-04-07T21:25:15.612Z,80.00
2019-04-07T21:27:43.964Z,80.10
2019-04-07T21:30:12.916Z,80.20
2019-04-07T21:32:38.761Z,80.40
2019-04-07T21:35:15.005Z,80.80
2019-04-07T21:37:45.083Z,81.80
2019-04-07T21:40:22.713Z,81.80
2019-04-07T21:42:59.389Z,82.20
2019-04-07T21:45:37.487Z,82.60
2019-04-07T21:48:00.098Z,83.00
2019-04-07T21:50:26.037Z,83.00
2019-04-07T21:52:59.266Z,82.90
2019-04-07T21:55:26.813Z,82.90
2019-04-07T21:57:57.149Z,83.30
2019-04-07T22:00:40.087Z,85.00
2019-04-07T22:03:07.680Z,84.40
2019-04-07T22:05:41.258Z,84.10
2019-04-07T22:08:17.305Z,84.20
2019-04-07T22:10:42.862Z,84.30
2019-04-07T22:13:10.447Z,84.30
2019-04-07T22:15:45.936Z,84.20
2019-04-07T22:18:08.494Z,83.60
2019-04-07T22:20:34.925Z,83.50
2019-04-07T22:23:02.852Z,83.60
2019-04-07T22:25:30.283Z,83.80
2019-04-07T22:27:57.532Z,84.00
2019-04-07T22:30:24.738Z,84.10
2019-04-07T22:32:53.109Z,84.40
2019-04-07T22:35:19.914Z,84.70
2019-04-07T22:37:49.936Z,85.90
2019-04-07T22:40:19.417Z,84.90
2019-04-07T22:42:48.521Z,84.90
2019-04-07T22:45:14.941Z,84.70
2019-04-07T22:47:42.109Z,84.60
2019-04-07T22:50:09.696Z,84.80
2019-04-07T22:52:38.289Z,85.30
2019-04-07T22:55:08.300Z,85.20
2019-04-07T22:57:33.381Z,85.20
2019-04-07T23:00:00.895Z,85.30
2019-04-07T23:02:28.484Z,85.40
2019-04-07T23:04:56.069Z,85.50
2019-04-07T23:07:24.040Z,85.60
2019-04-07T23:09:52.386Z,85.10
2019-04-07T23:12:20.972Z,85.60
2019-04-07T23:14:47.701Z,85.60
2019-04-07T23:17:15.444Z,85.60
2019-04-07T23:19:42.779Z,85.60
2019-04-07T23:22:11.790Z,85.70
2019-04-07T23:24:39.086Z,85.70
2019-04-07T23:27:06.600Z,85.00
2019-04-07T23:29:34.522Z,85.00
2019-04-07T23:32:01.875Z,85.30
2019-04-07T23:34:31.038Z,87.20
2019-04-07T23:36:57.795Z,87.10
2019-04-07T23:39:25.380Z,86.30
2019-04-07T23:41:53.279Z,86.30
2019-04-07T23:44:21.638Z,86.00
2019-04-07T23:46:49.233Z,85.60
2019-04-07T23:49:18.951Z,85.80
2019-04-07T23:51:45.531Z,85.80
2019-04-07T23:54:12.822Z,86.00
2019-04-07T23:56:41.524Z,87.20
2019-04-07T23:59:08.802Z,86.70
